createdAt,value
2023-04-13T00:00:31.598Z,30.50
2023-04-13T00:01:35.378Z,32.17
2023-04-13T00:02:39.436Z,30.90
2023-04-13T00:03:45.249Z,29.92
2023-04-13T00:04:49.070Z,29.45
2023-04-13T00:05:53.484Z,29.57
2023-04-13T00:06:57.804Z,28.70
2023-04-13T00:08:01.691Z,29.67
2023-04-13T00:09:08.949Z,29.98
2023-04-13T00:10:12.803Z,29.63
2023-04-13T00:11:16.436Z,30.80
2023-04-13T00:12:20.089Z,28.08
2023-04-13T00:13:23.743Z,30.45
2023-04-13T00:14:27.564Z,27.90
2023-04-13T00:15:31.541Z,30.73
2023-04-13T00:16:35.255Z,30.13
2023-04-13T00:17:38.921Z,30.45
2023-04-13T00:18:44.280Z,30.02
2023-04-13T00:19:48.211Z,31.15
2023-04-13T00:20:51.889Z,34.30
2023-04-13T00:21:55.541Z,31.37
2023-04-13T00:22:59.228Z,29.20
2023-04-13T00:24:02.980Z,30.17
2023-04-13T00:25:07.842Z,29.88
2023-04-13T00:26:11.515Z,31.73
2023-04-13T00:27:15.100Z,30.73
2023-04-13T00:28:18.771Z,29.92
2023-04-13T00:29:22.508Z,29.88
2023-04-13T00:30:26.185Z,31.15
2023-04-13T00:31:29.933Z,31.60
2023-04-13T00:32:33.678Z,31.43
2023-04-13T00:33:37.407Z,34.20
2023-04-13T00:34:42.791Z,32.95
2023-04-13T00:35:46.460Z,32.10
2023-04-13T00:36:50.525Z,34.42
2023-04-13T00:37:54.695Z,31.77
2023-04-13T00:38:58.349Z,31.98
2023-04-13T00:40:02.307Z,31.60
2023-04-13T00:41:06.418Z,32.08
2023-04-13T00:42:10.315Z,31.80
2023-04-13T00:43:14.000Z,31.77
2023-04-13T00:44:17.914Z,31.85
2023-04-13T00:45:21.650Z,30.13
2023-04-13T00:46:25.490Z,30.88
2023-04-13T00:47:32.653Z,29.90
2023-04-13T00:48:36.342Z,30.23
2023-04-13T00:49:41.691Z,33.08
2023-04-13T00:50:45.543Z,30.52
2023-04-13T00:51:49.443Z,30.83
2023-04-13T00:52:53.170Z,31.20
2023-04-13T00:53:57.916Z,31.50
2023-04-13T00:55:02.009Z,29.73
2023-04-13T00:56:06.028Z,32.95
2023-04-13T00:57:09.801Z,31.45
2023-04-13T00:58:14.207Z,32.08
2023-04-13T00:59:17.907Z,29.87
2023-04-13T01:00:22.265Z,30.45
2023-04-13T01:01:26.080Z,30.45
2023-04-13T01:02:29.975Z,30.13
2023-04-13T01:03:33.670Z,30.98
2023-04-13T01:04:37.829Z,29.37
2023-04-13T01:05:50.426Z,32.40
2023-04-13T01:07:04.224Z,32.58
2023-04-13T01:08:16.916Z,31.40
2023-04-13T01:09:26.573Z,31.77
2023-04-13T01:10:36.064Z,27.77
2023-04-13T01:11:48.094Z,29.90
2023-04-13T01:13:00.393Z,30.45
2023-04-13T01:14:12.554Z,31.77
2023-04-13T01:15:17.816Z,31.98
2023-04-13T01:16:25.292Z,31.57
2023-04-13T01:18:54.100Z,32.17
2023-04-13T01:20:01.873Z,31.02
2023-04-13T01:21:11.518Z,33.22
2023-04-13T01:22:15.587Z,29.77
2023-04-13T01:23:28.759Z,31.23
2023-04-13T01:24:41.626Z,30.80
2023-04-13T01:25:52.221Z,33.65
2023-04-13T01:27:05.655Z,33.40
2023-04-13T01:28:13.301Z,33.43
2023-04-13T01:29:17.227Z,30.95
2023-04-13T01:30:22.183Z,30.75
2023-04-13T01:31:26.437Z,32.60
2023-04-13T01:32:30.430Z,32.70
2023-04-13T01:33:34.326Z,33.03
2023-04-13T01:34:39.265Z,31.48
2023-04-13T01:35:46.286Z,32.42
2023-04-13T01:36:53.834Z,31.45
2023-04-13T01:37:58.055Z,35.30
2023-04-13T01:39:01.796Z,33.30
2023-04-13T01:40:06.092Z,32.17
2023-04-13T01:41:09.755Z,31.52
2023-04-13T01:42:13.493Z,35.70
2023-04-13T01:43:19.435Z,34.88
2023-04-13T01:44:23.070Z,35.80
2023-04-13T01:45:28.711Z,34.22
2023-04-13T01:46:34.829Z,34.17
2023-04-13T01:47:43.144Z,38.80
2023-04-13T01:48:52.618Z,37.92
2023-04-13T01:50:00.692Z,32.73
2023-04-13T01:51:09.650Z,33.40
2023-04-13T01:52:14.180Z,32.00
2023-04-13T01:53:20.790Z,34.65
2023-04-13T01:54:28.505Z,36.15
2023-04-13T01:55:32.701Z,36.73
2023-04-13T01:56:39.973Z,36.28
2023-04-13T01:57:45.020Z,38.75
2023-04-13T01:58:52.532Z,38.38
2023-04-13T01:59:56.192Z,36.08
2023-04-13T02:00:59.913Z,37.70
2023-04-13T02:02:03.555Z,39.25
2023-04-13T02:03:08.796Z,37.33
2023-04-13T02:04:12.676Z,37.42
2023-04-13T02:05:16.398Z,36.33
2023-04-13T02:06:25.245Z,37.30
2023-04-13T02:07:28.872Z,37.38
2023-04-13T02:08:33.555Z,37.05
2023-04-13T02:09:37.316Z,36.10
2023-04-13T02:10:40.922Z,36.80
2023-04-13T02:11:44.613Z,36.43
2023-04-13T02:12:48.386Z,36.90
2023-04-13T02:13:53.725Z,36.08
2023-04-13T02:14:57.417Z,36.65
2023-04-13T02:16:01.178Z,34.45
2023-04-13T02:17:04.800Z,36.03
2023-04-13T02:18:08.865Z,38.50
2023-04-13T02:19:12.545Z,37.33
2023-04-13T02:20:16.328Z,35.15
2023-04-13T02:21:19.986Z,37.05
2023-04-13T02:22:23.868Z,39.07
2023-04-13T02:23:27.603Z,37.72
2023-04-13T02:24:31.278Z,36.28
2023-04-13T02:25:35.130Z,36.25
2023-04-13T02:26:38.789Z,39.03
2023-04-13T02:27:42.827Z,35.23
2023-04-13T02:28:52.938Z,36.97
2023-04-13T02:29:56.607Z,36.90
2023-04-13T02:31:00.275Z,36.10
2023-04-13T02:32:04.169Z,37.42
2023-04-13T02:33:07.876Z,34.83
2023-04-13T02:34:14.082Z,37.10
2023-04-13T02:35:17.764Z,38.83
2023-04-13T02:36:21.932Z,37.83
2023-04-13T02:37:25.690Z,39.40
2023-04-13T02:38:29.602Z,36.03
2023-04-13T02:39:33.216Z,35.75
2023-04-13T02:40:36.829Z,38.20
2023-04-13T02:41:40.539Z,35.92
2023-04-13T02:42:44.249Z,37.65
2023-04-13T02:43:47.898Z,34.77
2023-04-13T02:44:53.243Z,37.28
2023-04-13T02:45:57.569Z,37.80
2023-04-13T02:47:01.301Z,39.05
2023-04-13T02:48:05.087Z,39.28
2023-04-13T02:49:08.684Z,35.83
2023-04-13T02:50:12.997Z,38.58
2023-04-13T02:51:16.654Z,39.00
2023-04-13T02:52:20.324Z,38.25
2023-04-13T02:53:24.117Z,37.75
2023-04-13T02:54:27.859Z,36.03
2023-04-13T02:55:31.473Z,35.90
2023-04-13T02:56:35.195Z,40.28
2023-04-13T02:57:39.043Z,37.25
2023-04-13T02:58:45.612Z,39.28
2023-04-13T02:59:49.516Z,41.37
2023-04-13T03:00:54.781Z,43.45
2023-04-13T03:01:58.422Z,41.85
2023-04-13T03:03:02.504Z,38.80
2023-04-13T03:04:06.602Z,37.92
2023-04-13T03:05:11.147Z,36.50
2023-04-13T03:06:14.896Z,38.78
2023-04-13T03:07:18.576Z,38.47
2023-04-13T03:08:22.264Z,34.40
2023-04-13T03:09:26.252Z,36.40
2023-04-13T03:10:31.100Z,39.60
2023-04-13T03:11:34.794Z,38.92
2023-04-13T03:12:38.844Z,37.92
2023-04-13T03:13:42.499Z,40.75
2023-04-13T03:14:48.476Z,39.25
2023-04-13T03:15:53.838Z,39.57
2023-04-13T03:17:03.410Z,41.10
2023-04-13T03:18:07.255Z,40.38
2023-04-13T03:19:11.025Z,40.25
2023-04-13T03:20:14.767Z,40.15
2023-04-13T03:21:18.416Z,38.97
2023-04-13T03:22:22.162Z,40.47
2023-04-13T03:23:25.811Z,38.25
2023-04-13T03:24:29.445Z,39.58
2023-04-13T03:25:34.094Z,39.35
2023-04-13T03:26:37.862Z,38.57
2023-04-13T03:27:41.516Z,38.60
2023-04-13T03:28:47.733Z,38.42
2023-04-13T03:29:51.532Z,39.47
2023-04-13T03:30:56.866Z,37.55
2023-04-13T03:32:00.680Z,37.53
2023-04-13T03:33:04.475Z,37.97
2023-04-13T03:34:08.101Z,40.60
2023-04-13T03:35:11.704Z,36.63
2023-04-13T03:36:15.551Z,41.85
2023-04-13T03:37:19.213Z,38.90
2023-04-13T03:38:22.956Z,41.33
2023-04-13T03:39:26.639Z,45.30
2023-04-13T03:40:30.353Z,40.55
2023-04-13T03:41:34.034Z,40.22
2023-04-13T03:42:37.824Z,43.30
2023-04-13T03:43:44.896Z,42.60
2023-04-13T03:44:48.526Z,39.58
2023-04-13T03:45:52.284Z,40.70
2023-04-13T03:46:57.716Z,39.50
2023-04-13T03:48:01.581Z,38.87
2023-04-13T03:49:08.535Z,37.88
2023-04-13T03:50:12.459Z,40.58
2023-04-13T03:51:16.249Z,39.72
2023-04-13T03:52:20.073Z,39.40
2023-04-13T03:53:23.802Z,40.10
2023-04-13T03:54:27.499Z,38.75
2023-04-13T03:55:31.159Z,38.00
2023-04-13T03:56:34.879Z,41.20
2023-04-13T03:57:38.502Z,41.30
2023-04-13T03:58:42.179Z,40.40
2023-04-13T03:59:45.895Z,39.35
2023-04-13T04:00:49.834Z,40.38
2023-04-13T04:01:53.525Z,38.60
2023-04-13T04:02:58.953Z,39.92
2023-04-13T04:04:03.357Z,40.00
2023-04-13T04:05:07.913Z,38.75
2023-04-13T04:06:39.368Z,39.72
2023-04-13T04:07:43.001Z,41.28
2023-04-13T04:08:57.055Z,39.28
2023-04-13T04:10:00.734Z,39.23
2023-04-13T04:11:04.686Z,39.80
2023-04-13T04:12:08.912Z,40.58
2023-04-13T04:13:12.568Z,39.00
2023-04-13T04:14:16.221Z,40.30
2023-04-13T04:15:19.969Z,38.60
2023-04-13T04:16:23.675Z,40.53
2023-04-13T04:17:27.494Z,41.08
2023-04-13T04:18:33.828Z,40.15
2023-04-13T04:19:37.562Z,42.53
2023-04-13T04:20:41.209Z,40.50
2023-04-13T04:21:44.903Z,40.97
2023-04-13T04:22:48.687Z,42.17
2023-04-13T04:23:52.375Z,40.70
2023-04-13T04:24:56.099Z,41.58
2023-04-13T04:26:15.482Z,40.33
2023-04-13T04:27:19.248Z,39.05
2023-04-13T04:28:25.691Z,39.00
2023-04-13T04:29:29.748Z,39.53
2023-04-13T04:30:33.495Z,38.22
2023-04-13T04:31:37.568Z,39.80
2023-04-13T04:32:59.042Z,38.80
2023-04-13T04:34:04.527Z,40.42
2023-04-13T04:35:09.383Z,38.25
2023-04-13T04:36:13.314Z,38.67
2023-04-13T04:37:20.561Z,39.90
2023-04-13T04:38:55.381Z,39.25
2023-04-13T04:39:59.043Z,37.70
2023-04-13T04:41:02.725Z,37.25
2023-04-13T04:42:06.586Z,39.80
2023-04-13T04:43:10.278Z,38.23
2023-04-13T04:44:14.807Z,36.47
2023-04-13T04:45:18.595Z,38.90
2023-04-13T04:46:22.429Z,37.88
2023-04-13T04:47:26.173Z,37.85
2023-04-13T04:48:29.866Z,38.47
2023-04-13T04:49:35.231Z,37.78
2023-04-13T04:50:39.040Z,35.95
2023-04-13T04:51:42.751Z,37.00
2023-04-13T04:52:46.518Z,37.10
2023-04-13T04:53:50.271Z,36.37
2023-04-13T04:54:54.663Z,36.88
2023-04-13T04:55:58.321Z,37.50
2023-04-13T04:57:02.215Z,36.45
2023-04-13T04:58:05.912Z,36.85
2023-04-13T04:59:10.597Z,36.67
2023-04-13T05:00:16.721Z,36.90
2023-04-13T05:01:20.740Z,36.33
2023-04-13T05:02:24.478Z,36.45
2023-04-13T05:03:28.277Z,34.42
2023-04-13T05:04:31.960Z,36.73
2023-04-13T05:05:37.432Z,36.00
2023-04-13T05:06:41.356Z,35.78
2023-04-13T05:07:45.178Z,37.63
2023-04-13T05:08:48.870Z,37.20
2023-04-13T05:09:52.612Z,37.63
2023-04-13T05:10:56.393Z,35.60
2023-04-13T05:12:00.220Z,35.67
2023-04-13T05:13:03.978Z,35.72
2023-04-13T05:14:07.707Z,36.25
2023-04-13T05:15:12.123Z,37.03
2023-04-13T05:16:15.861Z,37.50
2023-04-13T05:17:19.603Z,36.42
2023-04-13T05:18:23.240Z,37.83
2023-04-13T05:19:26.991Z,36.45
2023-04-13T05:20:30.669Z,36.67
2023-04-13T05:21:36.091Z,35.65
2023-04-13T05:22:39.783Z,35.08
2023-04-13T05:23:44.292Z,37.40
2023-04-13T05:24:48.036Z,37.45
2023-04-13T05:25:51.837Z,37.10
2023-04-13T05:26:56.714Z,38.20
2023-04-13T05:28:00.309Z,36.78
2023-04-13T05:29:04.883Z,36.28
2023-04-13T05:30:09.786Z,37.67
2023-04-13T05:31:13.593Z,37.60
2023-04-13T05:32:17.344Z,39.25
2023-04-13T05:33:21.062Z,38.05
2023-04-13T05:34:24.790Z,37.75
2023-04-13T05:35:28.426Z,37.17
2023-04-13T05:36:32.197Z,35.73
2023-04-13T05:37:37.664Z,36.30
2023-04-13T05:38:41.307Z,35.95
2023-04-13T05:39:45.098Z,36.25
2023-04-13T05:40:48.813Z,34.38
2023-04-13T05:41:52.569Z,35.60
2023-04-13T05:42:56.418Z,35.40
2023-04-13T05:44:00.188Z,34.55
2023-04-13T05:45:03.937Z,35.30
2023-04-13T05:46:08.230Z,35.22
2023-04-13T05:47:12.010Z,34.70
2023-04-13T05:48:15.707Z,36.60
2023-04-13T05:49:19.417Z,34.83
2023-04-13T05:50:23.086Z,35.55
2023-04-13T05:51:26.747Z,34.97
2023-04-13T05:52:30.476Z,34.90
2023-04-13T05:53:35.862Z,34.33
2023-04-13T05:54:39.470Z,36.40
2023-04-13T05:55:45.200Z,34.30
2023-04-13T05:56:50.345Z,36.55
2023-04-13T05:57:54.234Z,36.00
2023-04-13T05:58:58.126Z,36.10
2023-04-13T06:00:02.334Z,36.55
2023-04-13T06:01:09.528Z,35.75
2023-04-13T06:02:13.338Z,35.75
2023-04-13T06:03:17.461Z,35.27
2023-04-13T06:04:21.560Z,37.40
2023-04-13T06:05:25.515Z,35.97
2023-04-13T06:06:29.332Z,35.90
2023-04-13T06:07:33.019Z,36.03
2023-04-13T06:08:38.343Z,38.13
2023-04-13T06:09:42.043Z,37.15
2023-04-13T06:10:45.748Z,38.08
2023-04-13T06:11:49.379Z,33.60
2023-04-13T06:12:53.179Z,36.65
2023-04-13T06:13:59.470Z,35.13
2023-04-13T06:15:04.021Z,35.47
2023-04-13T06:16:08.632Z,36.42
2023-04-13T06:17:12.360Z,36.22
2023-04-13T06:18:16.064Z,37.22
2023-04-13T06:19:19.719Z,36.33
2023-04-13T06:20:23.485Z,37.03
2023-04-13T06:21:27.179Z,37.03
2023-04-13T06:22:30.853Z,36.72
2023-04-13T06:23:34.573Z,37.00
2023-04-13T06:24:42.258Z,36.47
2023-04-13T06:25:46.249Z,37.75
2023-04-13T06:26:50.053Z,36.83
2023-04-13T06:27:55.141Z,37.78
2023-04-13T06:28:59.431Z,37.30
2023-04-13T06:30:03.401Z,37.83
2023-04-13T06:31:07.481Z,35.58
2023-04-13T06:32:11.332Z,35.22
2023-04-13T06:33:14.965Z,35.70
2023-04-13T06:34:18.592Z,35.20
2023-04-13T06:35:22.270Z,35.57
2023-04-13T06:36:25.956Z,35.00
2023-04-13T06:37:29.707Z,35.97
2023-04-13T06:38:33.316Z,34.97
2023-04-13T06:39:38.706Z,36.50
2023-04-13T06:40:42.342Z,34.70
2023-04-13T06:41:45.983Z,36.40
2023-04-13T06:42:49.679Z,34.22
2023-04-13T06:43:53.484Z,33.00
2023-04-13T06:44:57.199Z,35.40
2023-04-13T06:46:01.149Z,33.13
2023-04-13T06:47:04.889Z,34.15
2023-04-13T06:48:08.687Z,35.22
2023-04-13T06:49:12.407Z,33.25
2023-04-13T06:50:16.822Z,33.75
2023-04-13T06:51:20.530Z,33.67
2023-04-13T06:52:24.229Z,34.25
2023-04-13T06:53:28.013Z,33.45
2023-04-13T06:54:31.691Z,33.20
2023-04-13T06:55:37.009Z,32.33
2023-04-13T06:56:40.812Z,31.93
2023-04-13T06:57:44.942Z,31.23
2023-04-13T06:58:48.731Z,32.97
2023-04-13T06:59:52.425Z,32.78
2023-04-13T07:00:56.100Z,32.35
2023-04-13T07:02:00.035Z,31.73
2023-04-13T07:03:04.220Z,32.97
2023-04-13T07:04:08.141Z,31.75
2023-04-13T07:05:12.040Z,31.35
2023-04-13T07:06:15.777Z,33.30
2023-04-13T07:07:19.540Z,31.97
2023-04-13T07:08:23.240Z,31.48
2023-04-13T07:09:26.998Z,33.53
2023-04-13T07:10:30.774Z,33.25
2023-04-13T07:11:36.095Z,33.60
2023-04-13T07:12:39.698Z,32.43
2023-04-13T07:13:43.338Z,30.23
2023-04-13T07:14:46.999Z,33.47
2023-04-13T07:15:50.726Z,33.38
2023-04-13T07:16:54.431Z,32.72
2023-04-13T07:17:58.199Z,32.80
2023-04-13T07:19:01.976Z,32.35
2023-04-13T07:20:06.318Z,31.05
2023-04-13T07:21:10.093Z,31.30
2023-04-13T07:22:13.786Z,32.33
2023-04-13T07:23:17.457Z,31.97
2023-04-13T07:24:21.174Z,31.65
2023-04-13T07:25:24.976Z,32.83
2023-04-13T07:26:28.681Z,34.05
2023-04-13T07:27:35.122Z,32.72
2023-04-13T07:28:39.170Z,31.73
2023-04-13T07:29:42.981Z,31.23
2023-04-13T07:30:47.131Z,31.13
2023-04-13T07:31:50.824Z,33.42
2023-04-13T07:32:54.711Z,30.45
2023-04-13T07:33:58.430Z,31.27
2023-04-13T07:35:02.528Z,32.80
2023-04-13T07:36:07.390Z,30.60
2023-04-13T07:37:10.983Z,31.38
2023-04-13T07:38:14.659Z,33.28
2023-04-13T07:39:18.426Z,33.47
2023-04-13T07:40:22.725Z,32.03
2023-04-13T07:41:26.366Z,31.73
2023-04-13T07:42:29.992Z,31.95
2023-04-13T07:43:35.308Z,32.42
2023-04-13T07:44:39.029Z,31.07
2023-04-13T07:45:42.693Z,32.33
2023-04-13T07:46:46.367Z,32.40
2023-04-13T07:47:50.673Z,31.13
2023-04-13T07:48:54.496Z,32.63
2023-04-13T07:49:58.228Z,32.33
2023-04-13T07:51:01.994Z,32.70
2023-04-13T07:52:06.023Z,30.52
2023-04-13T07:53:09.750Z,30.85
2023-04-13T07:54:15.144Z,31.20
2023-04-13T07:55:20.052Z,31.87
2023-04-13T07:56:23.728Z,31.48
2023-04-13T07:57:27.357Z,30.88
2023-04-13T07:58:31.125Z,31.52
2023-04-13T07:59:36.385Z,31.50
2023-04-13T08:00:40.006Z,30.30
2023-04-13T08:01:43.771Z,32.90
2023-04-13T08:02:47.701Z,30.95
2023-04-13T08:03:54.562Z,30.50
2023-04-13T08:04:58.436Z,30.85
2023-04-13T08:06:02.308Z,31.20
2023-04-13T08:07:06.173Z,29.30
2023-04-13T08:08:09.965Z,28.15
2023-04-13T08:09:13.767Z,29.65
2023-04-13T08:10:20.393Z,29.45
2023-04-13T08:11:24.149Z,29.37
2023-04-13T08:12:27.793Z,30.05
2023-04-13T08:13:31.739Z,29.48
2023-04-13T08:14:37.053Z,30.15
2023-04-13T08:15:40.775Z,29.45
2023-04-13T08:16:44.488Z,29.63
2023-04-13T08:17:48.678Z,29.65
2023-04-13T08:18:52.333Z,27.65
2023-04-13T08:19:56.073Z,29.83
2023-04-13T08:20:59.971Z,29.63
2023-04-13T08:22:03.731Z,28.33
2023-04-13T08:23:07.368Z,29.35
2023-04-13T08:24:11.000Z,29.05
2023-04-13T08:25:14.732Z,26.45
2023-04-13T08:26:19.614Z,28.77
2023-04-13T08:27:23.212Z,31.00
2023-04-13T08:28:27.155Z,29.30
2023-04-13T08:29:30.889Z,27.90
2023-04-13T08:30:36.756Z,28.50
2023-04-13T08:31:40.765Z,29.30
2023-04-13T08:32:44.513Z,29.10
2023-04-13T08:33:48.198Z,28.10
2023-04-13T08:34:52.045Z,27.48
2023-04-13T08:35:56.121Z,29.20
2023-04-13T08:36:59.921Z,29.42
2023-04-13T08:38:04.184Z,27.40
2023-04-13T08:39:08.020Z,29.27
2023-04-13T08:40:12.368Z,28.60
2023-04-13T08:41:18.453Z,28.60
2023-04-13T08:42:23.704Z,29.15
2023-04-13T08:43:29.266Z,27.30
2023-04-13T08:44:34.413Z,29.75
2023-04-13T08:45:42.481Z,29.55
2023-04-13T08:46:47.228Z,29.95
2023-04-13T08:47:51.061Z,30.02
2023-04-13T08:48:59.794Z,29.93
2023-04-13T08:50:03.839Z,28.95
2023-04-13T08:51:08.109Z,29.48
2023-04-13T08:52:13.376Z,29.20
2023-04-13T08:53:18.956Z,29.25
2023-04-13T08:54:22.653Z,29.27
2023-04-13T08:55:26.357Z,28.50
2023-04-13T08:56:44.398Z,28.58
2023-04-13T08:57:51.576Z,29.67
2023-04-13T08:58:59.494Z,30.45
2023-04-13T09:00:05.104Z,28.03
2023-04-13T09:01:10.839Z,30.35
2023-04-13T09:02:15.183Z,30.88
2023-04-13T09:03:24.966Z,29.35
2023-04-13T09:04:32.556Z,29.05
2023-04-13T09:05:40.699Z,29.43
2023-04-13T09:06:46.779Z,29.50
2023-04-13T09:07:51.405Z,31.00
2023-04-13T09:08:55.845Z,29.30
2023-04-13T09:10:01.131Z,31.10
2023-04-13T09:11:04.926Z,28.37
2023-04-13T09:12:08.681Z,29.50
2023-04-13T09:13:12.345Z,30.33
2023-04-13T09:14:18.998Z,28.42
2023-04-13T09:15:23.529Z,30.50
2023-04-13T09:16:38.760Z,29.77
2023-04-13T09:17:46.570Z,30.20
2023-04-13T09:18:51.778Z,28.83
2023-04-13T09:20:11.578Z,30.10
2023-04-13T09:21:15.277Z,29.85
2023-04-13T09:22:24.303Z,30.17
2023-04-13T09:23:28.125Z,30.92
2023-04-13T09:24:43.775Z,28.45
2023-04-13T09:25:55.424Z,27.70
2023-04-13T09:26:59.220Z,28.50
2023-04-13T09:28:05.330Z,28.53
2023-04-13T09:29:11.747Z,28.77
2023-04-13T09:30:18.889Z,28.88
2023-04-13T09:31:22.761Z,29.05
2023-04-13T09:32:29.466Z,28.50
2023-04-13T09:33:47.664Z,29.03
2023-04-13T09:35:08.152Z,28.90
2023-04-13T09:36:23.720Z,28.05
2023-04-13T09:37:33.719Z,29.52
2023-04-13T09:38:37.440Z,29.95
2023-04-13T09:39:41.369Z,29.80
2023-04-13T09:40:54.464Z,29.73
2023-04-13T09:42:11.430Z,29.23
2023-04-13T09:43:16.901Z,29.20
2023-04-13T09:44:21.456Z,29.23
2023-04-13T09:45:25.767Z,27.60
2023-04-13T09:46:32.601Z,28.58
2023-04-13T09:47:41.177Z,28.35
2023-04-13T09:48:45.046Z,30.00
2023-04-13T09:49:48.656Z,27.13
2023-04-13T09:51:02.273Z,28.53
2023-04-13T09:52:06.982Z,30.27
2023-04-13T09:53:10.762Z,28.48
2023-04-13T09:54:22.072Z,30.98
2023-04-13T09:55:25.813Z,28.73
2023-04-13T09:56:29.437Z,30.30
2023-04-13T09:57:37.128Z,29.55
2023-04-13T09:58:46.820Z,29.42
2023-04-13T09:59:51.225Z,29.08
2023-04-13T10:00:57.679Z,28.30
2023-04-13T10:02:06.661Z,30.13
2023-04-13T10:03:17.153Z,28.67
2023-04-13T10:04:21.133Z,28.13
2023-04-13T10:05:26.926Z,29.10
2023-04-13T10:06:32.172Z,29.15
2023-04-13T10:07:36.232Z,27.83
2023-04-13T10:08:40.536Z,32.35
2023-04-13T10:09:44.344Z,30.20
2023-04-13T10:10:51.419Z,31.67
2023-04-13T10:11:56.922Z,29.95
2023-04-13T10:13:02.672Z,30.50
2023-04-13T10:14:12.763Z,30.17
2023-04-13T10:15:29.770Z,31.92
2023-04-13T10:17:02.441Z,31.67
2023-04-13T10:18:17.900Z,32.25
2023-04-13T10:19:24.716Z,30.80
2023-04-13T10:20:29.865Z,33.55
2023-04-13T10:21:35.422Z,31.23
2023-04-13T10:22:40.210Z,30.80
2023-04-13T10:23:44.025Z,31.38
2023-04-13T10:24:48.120Z,29.83
2023-04-13T10:25:52.720Z,30.27
2023-04-13T10:26:56.685Z,30.98
2023-04-13T10:28:01.154Z,31.27
2023-04-13T10:29:05.527Z,29.25
2023-04-13T10:30:23.447Z,29.20
2023-04-13T20:01:59.810Z,33.63
2023-04-13T20:03:03.752Z,33.30
2023-04-13T20:04:07.939Z,33.83
2023-04-13T20:05:11.822Z,31.80
2023-04-13T20:06:15.587Z,33.10
2023-04-13T20:07:19.420Z,31.05
2023-04-13T20:08:23.081Z,31.83
2023-04-13T20:09:26.764Z,31.25
2023-04-13T20:10:30.505Z,30.90
2023-04-13T20:11:35.870Z,33.90
2023-04-13T20:12:39.687Z,32.88
2023-04-13T20:13:43.409Z,30.63
2023-04-13T20:14:47.158Z,30.77
2023-04-13T20:15:50.884Z,33.35
2023-04-13T20:16:54.713Z,33.10
2023-04-13T20:18:00.117Z,31.85
2023-04-13T20:19:03.855Z,29.90
2023-04-13T20:20:08.310Z,30.35
2023-04-13T20:21:12.124Z,31.95
2023-04-13T20:22:15.699Z,30.27
2023-04-13T20:23:19.342Z,32.22
2023-04-13T20:24:22.971Z,34.28
2023-04-13T20:25:26.883Z,31.10
2023-04-13T20:26:31.431Z,32.97
2023-04-13T20:27:35.055Z,33.43
2023-04-13T20:28:38.736Z,30.75
2023-04-13T20:29:42.427Z,32.85
2023-04-13T20:30:46.110Z,32.03
2023-04-13T20:31:49.975Z,32.65
2023-04-13T20:32:53.728Z,31.37
2023-04-13T20:33:59.331Z,27.08
2023-04-13T20:35:03.229Z,31.48
2023-04-13T20:36:07.058Z,30.25
2023-04-13T20:37:10.698Z,31.38
2023-04-13T20:38:14.368Z,30.57
2023-04-13T20:39:18.095Z,28.35
2023-04-13T20:40:21.926Z,28.42
2023-04-13T20:41:25.597Z,30.08
2023-04-13T20:42:31.061Z,29.05
2023-04-13T20:43:34.715Z,28.17
2023-04-13T20:44:38.379Z,28.23
2023-04-13T20:45:42.007Z,33.97
2023-04-13T20:46:45.750Z,30.55
2023-04-13T20:47:50.162Z,33.70
2023-04-13T20:48:53.966Z,30.70
2023-04-13T20:49:59.228Z,31.02
2023-04-13T20:51:02.909Z,33.67
2023-04-13T20:52:06.607Z,30.48
2023-04-13T20:53:16.358Z,31.13
2023-04-13T20:54:20.209Z,30.90
2023-04-13T20:55:24.200Z,32.00
2023-04-13T20:56:27.849Z,33.17
2023-04-13T20:57:32.037Z,32.08
2023-04-13T20:58:36.067Z,31.63
2023-04-13T20:59:39.829Z,31.77
2023-04-13T21:00:43.529Z,31.00
2023-04-13T21:01:47.372Z,32.78
2023-04-13T21:02:51.340Z,31.77
2023-04-13T21:03:55.143Z,31.83
2023-04-13T21:05:00.516Z,33.10
2023-04-13T21:06:04.229Z,31.40
2023-04-13T21:07:07.923Z,32.33
2023-04-13T21:08:12.466Z,31.73
2023-04-13T21:09:16.171Z,34.10
2023-04-13T21:10:20.102Z,33.90
2023-04-13T21:11:23.713Z,31.80
2023-04-13T21:12:28.380Z,32.63
2023-04-13T21:13:32.169Z,32.38
2023-04-13T21:14:35.865Z,31.33
2023-04-13T21:15:39.627Z,30.63
2023-04-13T21:16:43.353Z,28.60
2023-04-13T21:17:47.071Z,31.02
2023-04-13T21:18:50.700Z,30.83
2023-04-13T21:19:54.494Z,29.88
2023-04-13T21:20:59.889Z,34.20
2023-04-13T21:22:03.493Z,30.00
2023-04-13T21:23:07.230Z,31.65
2023-04-13T21:24:11.125Z,31.48
2023-04-13T21:25:14.812Z,35.03
2023-04-13T21:26:18.640Z,30.50
2023-04-13T21:27:22.358Z,32.63
2023-04-13T21:28:26.208Z,30.20
2023-04-13T21:29:29.899Z,30.02
2023-04-13T21:30:33.614Z,29.98
2023-04-13T21:31:37.721Z,27.80
2023-04-13T21:32:41.490Z,30.95
2023-04-13T21:33:45.994Z,29.65
2023-04-13T21:34:51.947Z,34.70
2023-04-13T21:35:55.617Z,31.45
2023-04-13T21:37:00.950Z,33.60
2023-04-13T21:38:04.637Z,29.60
2023-04-13T21:39:08.233Z,29.60
2023-04-13T21:40:12.419Z,31.20
2023-04-13T21:41:16.437Z,31.33
2023-04-13T21:42:22.533Z,29.87
2023-04-13T21:43:26.477Z,33.92
2023-04-13T21:44:31.023Z,33.28
2023-04-13T21:45:34.825Z,31.85
2023-04-13T21:46:38.488Z,32.50
2023-04-13T21:47:42.206Z,31.37
2023-04-13T21:48:45.998Z,29.15
2023-04-13T21:49:49.712Z,30.25
2023-04-13T21:50:53.417Z,26.75
2023-04-13T21:51:57.036Z,30.95
2023-04-13T21:53:02.737Z,30.10
2023-04-13T21:54:06.572Z,33.05
2023-04-13T21:55:10.848Z,31.52
2023-04-13T21:56:14.603Z,30.58
2023-04-13T21:57:18.291Z,35.17
2023-04-13T21:58:22.095Z,32.27
2023-04-13T21:59:25.757Z,31.80
2023-04-13T22:00:29.643Z,35.00
2023-04-13T22:01:33.392Z,34.40
2023-04-13T22:02:37.167Z,30.33
2023-04-13T22:03:42.460Z,31.93
2023-04-13T22:04:46.245Z,33.05
2023-04-13T22:05:49.995Z,27.63
2023-04-13T22:06:53.662Z,34.75
2023-04-13T22:07:57.375Z,34.38
2023-04-13T22:09:02.981Z,34.73
2023-04-13T22:10:07.577Z,32.33
2023-04-13T22:11:11.419Z,32.72
2023-04-13T22:12:15.062Z,32.25
2023-04-13T22:13:18.678Z,29.60
2023-04-13T22:14:22.419Z,34.30
2023-04-13T22:15:26.128Z,33.88
2023-04-13T22:16:29.738Z,34.30
2023-04-13T22:17:33.439Z,34.47
2023-04-13T22:18:37.138Z,36.03
2023-04-13T22:19:40.770Z,34.40
2023-04-13T22:20:44.454Z,33.72
2023-04-13T22:21:48.140Z,34.47
2023-04-13T22:22:51.813Z,34.92
2023-04-13T22:23:55.562Z,37.42
2023-04-13T22:25:00.930Z,33.90
2023-04-13T22:26:04.780Z,36.28
2023-04-13T22:27:08.472Z,37.00
2023-04-13T22:28:12.155Z,35.00
2023-04-13T22:29:16.189Z,31.90
2023-04-13T22:30:20.060Z,32.13
2023-04-13T22:31:23.775Z,32.65
2023-04-13T22:32:29.146Z,36.95
2023-04-13T22:33:32.863Z,35.67
2023-04-13T22:34:36.598Z,38.08
2023-04-13T22:35:40.280Z,35.40
2023-04-13T22:36:43.909Z,34.63
2023-04-13T22:37:47.541Z,34.80
2023-04-13T22:38:51.395Z,30.58
2023-04-13T22:39:55.142Z,35.03
2023-04-13T22:41:05.900Z,35.33
2023-04-13T22:42:09.541Z,33.13
2023-04-13T22:43:13.154Z,39.03
2023-04-13T22:44:16.833Z,36.45
2023-04-13T22:45:20.776Z,34.35
2023-04-13T22:46:24.582Z,39.93
2023-04-13T22:47:28.369Z,38.67
2023-04-13T22:48:32.177Z,39.38
2023-04-13T22:49:35.928Z,35.53
2023-04-13T22:50:39.857Z,37.15
2023-04-13T22:51:43.531Z,38.33
2023-04-13T22:52:47.325Z,37.35
2023-04-13T22:53:51.017Z,39.17
2023-04-13T22:54:55.360Z,38.53
2023-04-13T22:56:00.940Z,39.88
2023-04-13T22:57:05.302Z,37.13
2023-04-13T22:58:09.188Z,36.58
2023-04-13T22:59:12.837Z,36.55
2023-04-13T23:00:17.022Z,38.03
2023-04-13T23:01:20.737Z,36.30
2023-04-13T23:02:24.578Z,37.23
2023-04-13T23:03:28.529Z,36.75
2023-04-13T23:04:32.488Z,36.58
2023-04-13T23:05:36.256Z,37.75
2023-04-13T23:06:39.969Z,37.83
2023-04-13T23:07:43.596Z,38.83
2023-04-13T23:08:47.250Z,40.55
2023-04-13T23:09:52.555Z,38.75
2023-04-13T23:10:56.229Z,37.05
2023-04-13T23:12:01.536Z,38.28
2023-04-13T23:13:05.291Z,35.97
2023-04-13T23:14:08.990Z,38.28
2023-04-13T23:15:13.623Z,37.75
2023-04-13T23:16:17.309Z,38.95
2023-04-13T23:17:21.010Z,34.40
2023-04-13T23:18:24.781Z,37.97
2023-04-13T23:19:28.444Z,36.80
2023-04-13T23:20:32.790Z,39.42
2023-04-13T23:21:36.496Z,39.33
2023-04-13T23:22:40.206Z,37.28
2023-04-13T23:23:43.896Z,37.23
2023-04-13T23:24:47.634Z,37.25
2023-04-13T23:25:51.340Z,37.35
2023-04-13T23:26:55.105Z,37.58